sensor_id;sensor_type;location;lat;lon;timestamp;pressure;altitude;pressure_sealevel;temperature;humidity
60170;BME280;46042;49.444;6.862;2023-03-22T00:01:11;98425.75;;;7.08;100.00
60170;BME280;46042;49.444;6.862;2023-03-22T00:03:38;98422.69;;;7.00;100.00
60170;BME280;46042;49.444;6.862;2023-03-22T00:06:05;98422.88;;;6.96;100.00
60170;BME280;46042;49.444;6.862;2023-03-22T00:08:32;98418.91;;;6.89;100.00
60170;BME280;46042;49.444;6.862;2023-03-22T00:10:59;98417.41;;;6.85;100.00
60170;BME280;46042;49.444;6.862;2023-03-22T00:13:26;98421.84;;;6.83;100.00
60170;BME280;46042;49.444;6.862;2023-03-22T00:15:54;98408.16;;;6.78;100.00
60170;BME280;46042;49.444;6.862;2023-03-22T00:18:21;98414.50;;;6.74;100.00
60170;BME280;46042;49.444;6.862;2023-03-22T00:20:53;98416.59;;;6.67;100.00
60170;BME280;46042;49.444;6.862;2023-03-22T00:23:20;98416.25;;;6.57;100.00
60170;BME280;46042;49.444;6.862;2023-03-22T00:25:47;98402.56;;;6.52;100.00
60170;BME280;46042;49.444;6.862;2023-03-22T00:28:14;98401.94;;;6.47;100.00
60170;BME280;46042;49.444;6.862;2023-03-22T00:30:42;98405.66;;;6.43;100.00
60170;BME280;46042;49.444;6.862;2023-03-22T00:33:16;98399.06;;;6.35;100.00
60170;BME280;46042;49.444;6.862;2023-03-22T00:35:54;98402.75;;;6.31;100.00
60170;BME280;46042;49.444;6.862;2023-03-22T00:38:23;98400.41;;;6.26;100.00
60170;BME280;46042;49.444;6.862;2023-03-22T00:41:08;98390.25;;;6.20;100.00
60170;BME280;46042;49.444;6.862;2023-03-22T00:43:36;98391.09;;;6.21;100.00
60170;BME280;46042;49.444;6.862;2023-03-22T00:46:04;98395.56;;;6.19;100.00
60170;BME280;46042;49.444;6.862;2023-03-22T00:48:31;98387.84;;;6.16;100.00
60170;BME280;46042;49.444;6.862;2023-03-22T00:50:57;98385.41;;;6.12;100.00
60170;BME280;46042;49.444;6.862;2023-03-22T00:53:24;98387.44;;;6.07;100.00
60170;BME280;46042;49.444;6.862;2023-03-22T00:55:51;98380.66;;;6.03;100.00
60170;BME280;46042;49.444;6.862;2023-03-22T00:58:18;98385.16;;;6.00;100.00
60170;BME280;46042;49.444;6.862;2023-03-22T01:00:44;98384.63;;;5.93;100.00
60170;BME280;46042;49.444;6.862;2023-03-22T01:03:11;98383.28;;;5.86;100.00
60170;BME280;46042;49.444;6.862;2023-03-22T01:05:39;98379.19;;;5.80;100.00
60170;BME280;46042;49.444;6.862;2023-03-22T01:08:06;98371.59;;;5.75;100.00
60170;BME280;46042;49.444;6.862;2023-03-22T01:10:36;98373.59;;;5.70;100.00
60170;BME280;46042;49.444;6.862;2023-03-22T01:13:04;98382.56;;;5.64;100.00
60170;BME280;46042;49.444;6.862;2023-03-22T01:15:31;98380.94;;;5.62;100.00
60170;BME280;46042;49.444;6.862;2023-03-22T01:17:58;98369.28;;;5.51;100.00
60170;BME280;46042;49.444;6.862;2023-03-22T01:20:25;98371.13;;;5.49;100.00
60170;BME280;46042;49.444;6.862;2023-03-22T01:22:52;98376.56;;;5.45;100.00
60170;BME280;46042;49.444;6.862;2023-03-22T01:25:19;98365.50;;;5.39;100.00
60170;BME280;46042;49.444;6.862;2023-03-22T01:27:46;98365.75;;;5.35;100.00
60170;BME280;46042;49.444;6.862;2023-03-22T01:30:13;98366.88;;;5.29;100.00
60170;BME280;46042;49.444;6.862;2023-03-22T01:32:39;98368.72;;;5.27;100.00
60170;BME280;46042;49.444;6.862;2023-03-22T01:35:07;98366.25;;;5.24;100.00
60170;BME280;46042;49.444;6.862;2023-03-22T01:37:34;98357.88;;;5.17;100.00
60170;BME280;46042;49.444;6.862;2023-03-22T01:40:01;98362.47;;;5.12;100.00
60170;BME280;46042;49.444;6.862;2023-03-22T01:42:27;98355.63;;;5.09;100.00
60170;BME280;46042;49.444;6.862;2023-03-22T01:47:49;98356.63;;;5.07;100.00
60170;BME280;46042;49.444;6.862;2023-03-22T01:50:18;98358.47;;;5.05;100.00
60170;BME280;46042;49.444;6.862;2023-03-22T01:52:45;98350.56;;;5.06;100.00
60170;BME280;46042;49.444;6.862;2023-03-22T01:55:12;98347.72;;;5.11;100.00
60170;BME280;46042;49.444;6.862;2023-03-22T01:57:40;98347.72;;;5.11;100.00
60170;BME280;46042;49.444;6.862;2023-03-22T02:00:10;98344.53;;;5.04;100.00
60170;BME280;46042;49.444;6.862;2023-03-22T02:02:42;98340.50;;;4.98;100.00
60170;BME280;46042;49.444;6.862;2023-03-22T02:05:09;98342.09;;;5.01;100.00
60170;BME280;46042;49.444;6.862;2023-03-22T02:07:39;98343.16;;;4.97;100.00
60170;BME280;46042;49.444;6.862;2023-03-22T02:10:13;98342.44;;;4.93;100.00
60170;BME280;46042;49.444;6.862;2023-03-22T02:13:05;98340.09;;;4.89;100.00
60170;BME280;46042;49.444;6.862;2023-03-22T02:15:46;98335.13;;;4.82;100.00
60170;BME280;46042;49.444;6.862;2023-03-22T02:29:54;98317.38;;;4.72;100.00
60170;BME280;46042;49.444;6.862;2023-03-22T02:35:33;98318.31;;;4.70;100.00
60170;BME280;46042;49.444;6.862;2023-03-22T02:44:00;98319.78;;;4.57;100.00
60170;BME280;46042;49.444;6.862;2023-03-22T02:46:40;98319.03;;;4.55;100.00
60170;BME280;46042;49.444;6.862;2023-03-22T02:49:35;98310.56;;;4.50;100.00
60170;BME280;46042;49.444;6.862;2023-03-22T02:57:28;98305.91;;;4.37;100.00
60170;BME280;46042;49.444;6.862;2023-03-22T02:59:59;98305.28;;;4.32;100.00
60170;BME280;46042;49.444;6.862;2023-03-22T03:02:27;98299.31;;;4.30;100.00
60170;BME280;46042;49.444;6.862;2023-03-22T03:04:56;98303.50;;;4.33;100.00
60170;BME280;46042;49.444;6.862;2023-03-22T03:07:26;98298.28;;;4.33;100.00
60170;BME280;46042;49.444;6.862;2023-03-22T03:09:53;98290.88;;;4.43;100.00
60170;BME280;46042;49.444;6.862;2023-03-22T03:12:23;98285.41;;;4.49;100.00
60170;BME280;46042;49.444;6.862;2023-03-22T03:14:51;98282.56;;;4.53;100.00
60170;BME280;46042;49.444;6.862;2023-03-22T03:17:52;98280.44;;;4.62;100.00
60170;BME280;46042;49.444;6.862;2023-03-22T03:25:56;98280.53;;;4.78;100.00
60170;BME280;46042;49.444;6.862;2023-03-22T03:28:45;98274.28;;;4.82;100.00
60170;BME280;46042;49.444;6.862;2023-03-22T03:31:19;98272.59;;;4.81;100.00
60170;BME280;46042;49.444;6.862;2023-03-22T03:34:28;98270.44;;;4.89;100.00
60170;BME280;46042;49.444;6.862;2023-03-22T03:37:05;98267.84;;;4.89;100.00
60170;BME280;46042;49.444;6.862;2023-03-22T03:39:38;98278.50;;;4.84;100.00
60170;BME280;46042;49.444;6.862;2023-03-22T03:42:10;98275.66;;;4.89;100.00
60170;BME280;46042;49.444;6.862;2023-03-22T03:44:38;98272.13;;;4.90;100.00
60170;BME280;46042;49.444;6.862;2023-03-22T03:47:06;98263.22;;;4.94;100.00
60170;BME280;46042;49.444;6.862;2023-03-22T03:49:34;98265.84;;;4.94;100.00
60170;BME280;46042;49.444;6.862;2023-03-22T03:52:03;98267.47;;;4.97;100.00
60170;BME280;46042;49.444;6.862;2023-03-22T03:54:30;98270.06;;;4.97;100.00
60170;BME280;46042;49.444;6.862;2023-03-22T03:56:57;98269.31;;;4.95;100.00
60170;BME280;46042;49.444;6.862;2023-03-22T03:59:24;98273.81;;;4.91;100.00
60170;BME280;46042;49.444;6.862;2023-03-22T04:01:50;98279.03;;;4.91;100.00
60170;BME280;46042;49.444;6.862;2023-03-22T04:04:20;98277.28;;;4.92;100.00
60170;BME280;46042;49.444;6.862;2023-03-22T04:06:59;98280.72;;;4.92;100.00
60170;BME280;46042;49.444;6.862;2023-03-22T04:09:35;98285.03;;;4.93;100.00
60170;BME280;46042;49.444;6.862;2023-03-22T04:12:02;98293.72;;;4.94;100.00
60170;BME280;46042;49.444;6.862;2023-03-22T04:14:29;98285.88;;;4.94;100.00
60170;BME280;46042;49.444;6.862;2023-03-22T04:16:56;98283.44;;;4.91;100.00
60170;BME280;46042;49.444;6.862;2023-03-22T04:19:22;98287.41;;;4.98;100.00
60170;BME280;46042;49.444;6.862;2023-03-22T04:21:49;98296.25;;;5.13;100.00
60170;BME280;46042;49.444;6.862;2023-03-22T04:24:20;98292.22;;;5.25;100.00
60170;BME280;46042;49.444;6.862;2023-03-22T04:26:47;98300.66;;;5.30;100.00
60170;BME280;46042;49.444;6.862;2023-03-22T04:29:13;98288.53;;;5.29;100.00
60170;BME280;46042;49.444;6.862;2023-03-22T04:31:41;98292.75;;;5.32;100.00
60170;BME280;46042;49.444;6.862;2023-03-22T04:34:07;98289.13;;;5.34;100.00
60170;BME280;46042;49.444;6.862;2023-03-22T04:36:36;98280.31;;;5.37;100.00
60170;BME280;46042;49.444;6.862;2023-03-22T04:39:08;98291.50;;;5.39;100.00
60170;BME280;46042;49.444;6.862;2023-03-22T04:41:35;98282.75;;;5.40;100.00
60170;BME280;46042;49.444;6.862;2023-03-22T04:44:03;98286.06;;;5.44;100.00
60170;BME280;46042;49.444;6.862;2023-03-22T04:46:33;98287.66;;;5.46;100.00
60170;BME280;46042;49.444;6.862;2023-03-22T04:49:00;98277.91;;;5.50;100.00
60170;BME280;46042;49.444;6.862;2023-03-22T04:51:27;98280.34;;;5.53;100.00
60170;BME280;46042;49.444;6.862;2023-03-22T04:53:53;98288.88;;;5.57;100.00
60170;BME280;46042;49.444;6.862;2023-03-22T04:56:21;98280.13;;;5.58;100.00
60170;BME280;46042;49.444;6.862;2023-03-22T04:58:47;98277.44;;;5.59;100.00
60170;BME280;46042;49.444;6.862;2023-03-22T05:01:16;98281.66;;;5.62;100.00
60170;BME280;46042;49.444;6.862;2023-03-22T05:03:44;98267.59;;;5.64;100.00
60170;BME280;46042;49.444;6.862;2023-03-22T05:06:14;98269.28;;;5.65;100.00
60170;BME280;46042;49.444;6.862;2023-03-22T05:08:41;98267.53;;;5.66;100.00
60170;BME280;46042;49.444;6.862;2023-03-22T05:11:13;98259.59;;;5.67;100.00
60170;BME280;46042;49.444;6.862;2023-03-22T05:13:40;98256.97;;;5.67;100.00
60170;BME280;46042;49.444;6.862;2023-03-22T05:16:07;98260.44;;;5.68;100.00
60170;BME280;46042;49.444;6.862;2023-03-22T05:18:35;98245.84;;;5.64;100.00
60170;BME280;46042;49.444;6.862;2023-03-22T05:21:14;98258.66;;;5.68;100.00
60170;BME280;46042;49.444;6.862;2023-03-22T05:23:43;98243.22;;;5.64;100.00
60170;BME280;46042;49.444;6.862;2023-03-22T05:26:10;98253.53;;;5.67;100.00
60170;BME280;46042;49.444;6.862;2023-03-22T05:28:42;98247.44;;;5.66;100.00
60170;BME280;46042;49.444;6.862;2023-03-22T05:31:09;98257.16;;;5.64;100.00
60170;BME280;46042;49.444;6.862;2023-03-22T05:33:37;98250.28;;;5.62;100.00
60170;BME280;46042;49.444;6.862;2023-03-22T05:36:04;98260.69;;;5.63;100.00
60170;BME280;46042;49.444;6.862;2023-03-22T05:38:31;98270.03;;;5.67;100.00
60170;BME280;46042;49.444;6.862;2023-03-22T05:40:58;98263.81;;;5.70;100.00
60170;BME280;46042;49.444;6.862;2023-03-22T05:43:25;98268.13;;;5.71;100.00
60170;BME280;46042;49.444;6.862;2023-03-22T05:45:51;98265.19;;;5.77;100.00
60170;BME280;46042;49.444;6.862;2023-03-22T05:48:18;98276.50;;;5.78;100.00
60170;BME280;46042;49.444;6.862;2023-03-22T05:50:45;98274.53;;;5.81;100.00
60170;BME280;46042;49.444;6.862;2023-03-22T05:53:11;98270.88;;;5.86;100.00
60170;BME280;46042;49.444;6.862;2023-03-22T05:55:38;98276.75;;;5.89;100.00
60170;BME280;46042;49.444;6.862;2023-03-22T05:58:04;98278.22;;;5.95;100.00
60170;BME280;46042;49.444;6.862;2023-03-22T06:00:31;98283.38;;;5.96;100.00
60170;BME280;46042;49.444;6.862;2023-03-22T06:02:58;98285.78;;;6.01;100.00
60170;BME280;46042;49.444;6.862;2023-03-22T06:05:31;98288.06;;;6.07;100.00
60170;BME280;46042;49.444;6.862;2023-03-22T06:07:58;98284.34;;;6.11;100.00
60170;BME280;46042;49.444;6.862;2023-03-22T06:10:25;98292.81;;;6.17;100.00
60170;BME280;46042;49.444;6.862;2023-03-22T06:12:54;98288.22;;;6.20;100.00
60170;BME280;46042;49.444;6.862;2023-03-22T06:15:21;98293.41;;;6.22;100.00
60170;BME280;46042;49.444;6.862;2023-03-22T06:17:48;98293.97;;;6.27;100.00
60170;BME280;46042;49.444;6.862;2023-03-22T06:20:14;98290.38;;;6.30;100.00
60170;BME280;46042;49.444;6.862;2023-03-22T06:22:41;98297.13;;;6.34;100.00
60170;BME280;46042;49.444;6.862;2023-03-22T06:25:09;98293.41;;;6.38;100.00
60170;BME280;46042;49.444;6.862;2023-03-22T06:27:36;98297.38;;;6.45;100.00
60170;BME280;46042;49.444;6.862;2023-03-22T06:30:04;98292.75;;;6.50;100.00
60170;BME280;46042;49.444;6.862;2023-03-22T06:32:30;98282.19;;;6.52;100.00
60170;BME280;46042;49.444;6.862;2023-03-22T06:34:57;98291.31;;;6.61;100.00
60170;BME280;46042;49.444;6.862;2023-03-22T06:37:24;98292.56;;;6.69;100.00
60170;BME280;46042;49.444;6.862;2023-03-22T06:39:51;98298.22;;;6.78;100.00
60170;BME280;46042;49.444;6.862;2023-03-22T06:42:17;98290.09;;;6.82;100.00
60170;BME280;46042;49.444;6.862;2023-03-22T06:44:44;98291.19;;;6.94;100.00
60170;BME280;46042;49.444;6.862;2023-03-22T06:47:11;98297.59;;;7.05;100.00
60170;BME280;46042;49.444;6.862;2023-03-22T06:49:38;98297.91;;;7.15;100.00
60170;BME280;46042;49.444;6.862;2023-03-22T06:52:05;98292.88;;;7.26;100.00
60170;BME280;46042;49.444;6.862;2023-03-22T06:54:32;98285.25;;;7.37;100.00
60170;BME280;46042;49.444;6.862;2023-03-22T06:56:59;98280.13;;;7.50;100.00
60170;BME280;46042;49.444;6.862;2023-03-22T06:59:26;98287.44;;;7.60;100.00
60170;BME280;46042;49.444;6.862;2023-03-22T07:01:53;98286.63;;;7.74;100.00
60170;BME280;46042;49.444;6.862;2023-03-22T07:04:20;98284.47;;;7.80;100.00
60170;BME280;46042;49.444;6.862;2023-03-22T07:06:49;98285.50;;;7.92;100.00
60170;BME280;46042;49.444;6.862;2023-03-22T07:09:15;98292.72;;;8.03;100.00
60170;BME280;46042;49.444;6.862;2023-03-22T07:11:42;98292.97;;;8.13;100.00
60170;BME280;46042;49.444;6.862;2023-03-22T07:14:10;98288.22;;;8.20;100.00
60170;BME280;46042;49.444;6.862;2023-03-22T07:16:36;98287.94;;;8.24;100.00
60170;BME280;46042;49.444;6.862;2023-03-22T07:19:03;98291.22;;;8.28;100.00
60170;BME280;46042;49.444;6.862;2023-03-22T07:21:29;98279.19;;;8.38;100.00
60170;BME280;46042;49.444;6.862;2023-03-22T07:23:56;98295.88;;;8.37;100.00
60170;BME280;46042;49.444;6.862;2023-03-22T07:26:24;98289.69;;;8.38;100.00
60170;BME280;46042;49.444;6.862;2023-03-22T07:28:52;98289.50;;;8.42;100.00
60170;BME280;46042;49.444;6.862;2023-03-22T07:31:18;98287.91;;;8.39;100.00
60170;BME280;46042;49.444;6.862;2023-03-22T07:33:45;98290.13;;;8.45;100.00
60170;BME280;46042;49.444;6.862;2023-03-22T07:36:13;98287.63;;;8.44;100.00
60170;BME280;46042;49.444;6.862;2023-03-22T07:38:40;98286.69;;;8.45;100.00
60170;BME280;46042;49.444;6.862;2023-03-22T07:41:07;98286.31;;;8.51;100.00
60170;BME280;46042;49.444;6.862;2023-03-22T07:43:34;98295.69;;;8.55;100.00
60170;BME280;46042;49.444;6.862;2023-03-22T07:46:18;98276.94;;;8.61;100.00
60170;BME280;46042;49.444;6.862;2023-03-22T07:48:44;98284.53;;;8.66;100.00
60170;BME280;46042;49.444;6.862;2023-03-22T07:51:11;98284.22;;;8.71;100.00
60170;BME280;46042;49.444;6.862;2023-03-22T07:53:38;98281.81;;;8.80;100.00
60170;BME280;46042;49.444;6.862;2023-03-22T07:56:05;98272.91;;;8.83;100.00
60170;BME280;46042;49.444;6.862;2023-03-22T07:58:31;98283.84;;;8.77;100.00
60170;BME280;46042;49.444;6.862;2023-03-22T08:01:05;98282.03;;;8.77;100.00
60170;BME280;46042;49.444;6.862;2023-03-22T08:03:35;98281.09;;;8.78;100.00
60170;BME280;46042;49.444;6.862;2023-03-22T08:06:03;98291.38;;;8.81;100.00
60170;BME280;46042;49.444;6.862;2023-03-22T08:08:33;98288.09;;;8.92;100.00
60170;BME280;46042;49.444;6.862;2023-03-22T08:11:03;98282.19;;;8.89;100.00
60170;BME280;46042;49.444;6.862;2023-03-22T08:13:30;98277.59;;;8.92;100.00
60170;BME280;46042;49.444;6.862;2023-03-22T08:15:57;98267.44;;;9.14;100.00
60170;BME280;46042;49.444;6.862;2023-03-22T08:18:24;98266.50;;;9.15;100.00
60170;BME280;46042;49.444;6.862;2023-03-22T08:20:55;98259.91;;;9.22;100.00
60170;BME280;46042;49.444;6.862;2023-03-22T08:23:22;98270.34;;;9.49;100.00
60170;BME280;46042;49.444;6.862;2023-03-22T08:26:06;98256.56;;;9.46;100.00
60170;BME280;46042;49.444;6.862;2023-03-22T08:28:32;98251.53;;;9.68;100.00
60170;BME280;46042;49.444;6.862;2023-03-22T08:30:59;98251.19;;;9.73;100.00
60170;BME280;46042;49.444;6.862;2023-03-22T08:33:26;98249.31;;;9.88;100.00
60170;BME280;46042;49.444;6.862;2023-03-22T08:36:07;98244.66;;;9.92;100.00
60170;BME280;46042;49.444;6.862;2023-03-22T08:38:34;98244.88;;;9.89;100.00
60170;BME280;46042;49.444;6.862;2023-03-22T08:41:00;98245.84;;;9.88;100.00
60170;BME280;46042;49.444;6.862;2023-03-22T08:43:28;98251.28;;;9.98;100.00
60170;BME280;46042;49.444;6.862;2023-03-22T08:45:55;98239.28;;;10.06;100.00
60170;BME280;46042;49.444;6.862;2023-03-22T08:48:22;98237.16;;;10.24;100.00
60170;BME280;46042;49.444;6.862;2023-03-22T08:50:50;98229.41;;;10.47;100.00
60170;BME280;46042;49.444;6.862;2023-03-22T08:53:17;98237.63;;;10.43;100.00
60170;BME280;46042;49.444;6.862;2023-03-22T08:55:43;98234.06;;;10.44;100.00
60170;BME280;46042;49.444;6.862;2023-03-22T08:58:11;98242.47;;;10.49;100.00
60170;BME280;46042;49.444;6.862;2023-03-22T09:00:38;98233.13;;;10.45;100.00
60170;BME280;46042;49.444;6.862;2023-03-22T09:03:15;98234.38;;;10.39;100.00
60170;BME280;46042;49.444;6.862;2023-03-22T09:05:42;98229.59;;;10.57;100.00
60170;BME280;46042;49.444;6.862;2023-03-22T09:08:09;98231.66;;;10.65;100.00
60170;BME280;46042;49.444;6.862;2023-03-22T09:10:47;98236.59;;;10.70;100.00
60170;BME280;46042;49.444;6.862;2023-03-22T09:13:18;98235.56;;;10.72;100.00
60170;BME280;46042;49.444;6.862;2023-03-22T09:15:45;98229.09;;;10.76;100.00
60170;BME280;46042;49.444;6.862;2023-03-22T09:18:13;98226.94;;;10.81;100.00
60170;BME280;46042;49.444;6.862;2023-03-22T09:20:40;98226.84;;;10.83;100.00
60170;BME280;46042;49.444;6.862;2023-03-22T09:23:08;98228.47;;;10.97;100.00
60170;BME280;46042;49.444;6.862;2023-03-22T09:25:35;98228.22;;;11.00;100.00
60170;BME280;46042;49.444;6.862;2023-03-22T09:28:02;98228.34;;;10.99;100.00
60170;BME280;46042;49.444;6.862;2023-03-22T09:30:29;98215.47;;;11.18;100.00
60170;BME280;46042;49.444;6.862;2023-03-22T09:32:56;98216.38;;;11.42;100.00
60170;BME280;46042;49.444;6.862;2023-03-22T09:35:23;98216.00;;;11.35;99.41
60170;BME280;46042;49.444;6.862;2023-03-22T09:37:49;98219.47;;;11.35;98.77
60170;BME280;46042;49.444;6.862;2023-03-22T09:40:20;98218.91;;;11.55;100.00
60170;BME280;46042;49.444;6.862;2023-03-22T09:42:49;98209.94;;;11.80;95.84
60170;BME280;46042;49.444;6.862;2023-03-22T09:45:23;98207.91;;;11.84;93.84
60170;BME280;46042;49.444;6.862;2023-03-22T09:47:58;98211.00;;;11.89;95.54
60170;BME280;46042;49.444;6.862;2023-03-22T09:50:28;98214.41;;;12.02;95.64
60170;BME280;46042;49.444;6.862;2023-03-22T09:52:56;98208.31;;;12.46;93.37
60170;BME280;46042;49.444;6.862;2023-03-22T09:55:46;98195.88;;;12.25;90.92
60170;BME280;46042;49.444;6.862;2023-03-22T10:01:02;98203.69;;;12.27;89.51
60170;BME280;46042;49.444;6.862;2023-03-22T10:06:04;98206.09;;;12.62;87.63
60170;BME280;46042;49.444;6.862;2023-03-22T10:14:27;98194.72;;;12.83;82.37
60170;BME280;46042;49.444;6.862;2023-03-22T10:16:58;98182.38;;;13.26;88.48
60170;BME280;46042;49.444;6.862;2023-03-22T10:19:57;98182.38;;;13.26;88.48
60170;BME280;46042;49.444;6.862;2023-03-22T10:22:29;98186.00;;;14.08;82.50
60170;BME280;46042;49.444;6.862;2023-03-22T10:24:59;98187.97;;;13.75;79.28
60170;BME280;46042;49.444;6.862;2023-03-22T10:27:29;98192.63;;;14.54;82.90
60170;BME280;46042;49.444;6.862;2023-03-22T10:30:02;98180.19;;;14.34;79.92
60170;BME280;46042;49.444;6.862;2023-03-22T10:35:23;98190.47;;;14.28;81.97
60170;BME280;46042;49.444;6.862;2023-03-22T10:37:50;98192.53;;;14.04;79.91
60170;BME280;46042;49.444;6.862;2023-03-22T10:40:32;98195.59;;;14.00;82.19
60170;BME280;46042;49.444;6.862;2023-03-22T10:43:18;98200.88;;;14.00;82.44
60170;BME280;46042;49.444;6.862;2023-03-22T10:45:47;98190.97;;;13.92;82.87
60170;BME280;46042;49.444;6.862;2023-03-22T10:48:27;98203.84;;;14.06;80.55
60170;BME280;46042;49.444;6.862;2023-03-22T10:50:56;98196.56;;;13.99;81.01
60170;BME280;46042;49.444;6.862;2023-03-22T10:53:43;98194.34;;;13.73;81.50
60170;BME280;46042;49.444;6.862;2023-03-22T10:56:13;98195.28;;;13.93;78.08
60170;BME280;46042;49.444;6.862;2023-03-22T10:58:41;98189.50;;;14.29;74.82
60170;BME280;46042;49.444;6.862;2023-03-22T11:01:10;98185.97;;;14.89;75.69
60170;BME280;46042;49.444;6.862;2023-03-22T11:03:40;98182.03;;;15.13;73.43
60170;BME280;46042;49.444;6.862;2023-03-22T11:06:13;98176.94;;;15.97;73.35
60170;BME280;46042;49.444;6.862;2023-03-22T11:11:23;98181.50;;;16.04;66.83
60170;BME280;46042;49.444;6.862;2023-03-22T11:16:27;98199.00;;;16.07;63.58
60170;BME280;46042;49.444;6.862;2023-03-22T11:18:56;98194.50;;;15.70;60.74
60170;BME280;46042;49.444;6.862;2023-03-22T11:21:32;98183.94;;;15.50;60.73
60170;BME280;46042;49.444;6.862;2023-03-22T11:24:03;98191.31;;;15.56;63.82
60170;BME280;46042;49.444;6.862;2023-03-22T11:26:35;98177.56;;;15.23;61.73
60170;BME280;46042;49.444;6.862;2023-03-22T11:29:14;98183.00;;;15.41;65.25
60170;BME280;46042;49.444;6.862;2023-03-22T11:31:58;98182.59;;;15.26;62.66
60170;BME280;46042;49.444;6.862;2023-03-22T11:34:28;98182.50;;;15.56;65.92
60170;BME280;46042;49.444;6.862;2023-03-22T11:36:58;98180.44;;;15.49;66.66
60170;BME280;46042;49.444;6.862;2023-03-22T11:39:27;98168.50;;;15.63;66.73
60170;BME280;46042;49.444;6.862;2023-03-22T11:41:59;98168.75;;;15.22;61.67
60170;BME280;46042;49.444;6.862;2023-03-22T11:44:31;98174.66;;;15.16;63.91
60170;BME280;46042;49.444;6.862;2023-03-22T11:47:01;98175.63;;;15.25;64.39
60170;BME280;46042;49.444;6.862;2023-03-22T11:49:38;98178.88;;;15.57;64.14
60170;BME280;46042;49.444;6.862;2023-03-22T11:52:15;98173.59;;;15.47;62.31
60170;BME280;46042;49.444;6.862;2023-03-22T11:54:44;98180.63;;;15.28;63.23
60170;BME280;46042;49.444;6.862;2023-03-22T11:57:15;98173.00;;;15.63;66.19
60170;BME280;46042;49.444;6.862;2023-03-22T12:00:02;98167.59;;;15.83;64.91
60170;BME280;46042;49.444;6.862;2023-03-22T12:02:43;98175.88;;;15.89;64.42
60170;BME280;46042;49.444;6.862;2023-03-22T12:05:19;98169.75;;;15.69;60.80
60170;BME280;46042;49.444;6.862;2023-03-22T12:07:52;98167.47;;;15.84;61.84
60170;BME280;46042;49.444;6.862;2023-03-22T12:10:24;98168.28;;;16.23;63.34
60170;BME280;46042;49.444;6.862;2023-03-22T12:12:57;98160.13;;;16.70;61.67
60170;BME280;46042;49.444;6.862;2023-03-22T12:15:41;98163.16;;;16.75;59.38
60170;BME280;46042;49.444;6.862;2023-03-22T12:18:17;98166.19;;;16.44;60.42
60170;BME280;46042;49.444;6.862;2023-03-22T12:20:54;98152.53;;;16.11;60.42
60170;BME280;46042;49.444;6.862;2023-03-22T12:23:27;98153.28;;;15.65;60.48
60170;BME280;46042;49.444;6.862;2023-03-22T12:26:17;98157.16;;;15.71;63.35
60170;BME280;46042;49.444;6.862;2023-03-22T12:32:07;98166.06;;;15.52;62.21
60170;BME280;46042;49.444;6.862;2023-03-22T12:34:41;98159.78;;;15.81;62.54
60170;BME280;46042;49.444;6.862;2023-03-22T12:37:14;98153.03;;;16.43;63.66
60170;BME280;46042;49.444;6.862;2023-03-22T12:39:49;98154.81;;;16.70;58.31
60170;BME280;46042;49.444;6.862;2023-03-22T12:42:47;98164.75;;;16.50;59.32
60170;BME280;46042;49.444;6.862;2023-03-22T12:45:22;98149.09;;;16.65;62.90
60170;BME280;46042;49.444;6.862;2023-03-22T12:48:04;98150.31;;;16.71;61.07
60170;BME280;46042;49.444;6.862;2023-03-22T12:50:37;98143.06;;;16.99;58.10
60170;BME280;46042;49.444;6.862;2023-03-22T12:53:15;98139.63;;;17.07;59.34
60170;BME280;46042;49.444;6.862;2023-03-22T12:55:43;98137.78;;;17.26;63.14
60170;BME280;46042;49.444;6.862;2023-03-22T12:58:17;98129.22;;;17.40;57.60
60170;BME280;46042;49.444;6.862;2023-03-22T13:00:54;98125.09;;;17.81;55.02
60170;BME280;46042;49.444;6.862;2023-03-22T13:03:27;98113.88;;;18.03;53.81
60170;BME280;46042;49.444;6.862;2023-03-22T13:06:06;98115.78;;;18.44;56.67
60170;BME280;46042;49.444;6.862;2023-03-22T13:09:35;98107.75;;;18.36;56.78
60170;BME280;46042;49.444;6.862;2023-03-22T13:19:54;98098.72;;;17.69;55.35
60170;BME280;46042;49.444;6.862;2023-03-22T13:30:34;98085.72;;;17.31;52.44
60170;BME280;46042;49.444;6.862;2023-03-22T13:35:50;98089.81;;;17.95;52.98
60170;BME280;46042;49.444;6.862;2023-03-22T13:38:26;98080.09;;;18.70;52.62
60170;BME280;46042;49.444;6.862;2023-03-22T13:43:52;98073.19;;;17.15;51.58
60170;BME280;46042;49.444;6.862;2023-03-22T13:54:15;98061.63;;;17.33;54.38
60170;BME280;46042;49.444;6.862;2023-03-22T14:02:16;98036.00;;;16.53;52.43
60170;BME280;46042;49.444;6.862;2023-03-22T14:04:51;98038.38;;;16.64;51.92
60170;BME280;46042;49.444;6.862;2023-03-22T14:07:23;98042.34;;;16.60;52.56
60170;BME280;46042;49.444;6.862;2023-03-22T14:09:57;98030.69;;;16.53;55.09
60170;BME280;46042;49.444;6.862;2023-03-22T14:12:57;98033.16;;;16.54;55.26
60170;BME280;46042;49.444;6.862;2023-03-22T14:15:30;98029.63;;;16.09;55.43
60170;BME280;46042;49.444;6.862;2023-03-22T14:18:13;98034.09;;;16.27;53.85
60170;BME280;46042;49.444;6.862;2023-03-22T14:20:42;98033.84;;;15.84;51.92
60170;BME280;46042;49.444;6.862;2023-03-22T14:23:20;98030.63;;;16.08;54.46
60170;BME280;46042;49.444;6.862;2023-03-22T14:25:49;98035.09;;;15.89;53.39
60170;BME280;46042;49.444;6.862;2023-03-22T14:28:20;98037.63;;;15.81;52.08
60170;BME280;46042;49.444;6.862;2023-03-22T14:30:55;98038.47;;;15.82;52.29
60170;BME280;46042;49.444;6.862;2023-03-22T14:33:21;98042.00;;;15.72;52.29
60170;BME280;46042;49.444;6.862;2023-03-22T14:35:52;98044.59;;;15.64;50.42
60170;BME280;46042;49.444;6.862;2023-03-22T14:38:26;98043.41;;;15.48;52.35
60170;BME280;46042;49.444;6.862;2023-03-22T14:41:28;98046.56;;;15.62;53.27
60170;BME280;46042;49.444;6.862;2023-03-22T14:43:58;98043.97;;;15.70;52.32
60170;BME280;46042;49.444;6.862;2023-03-22T14:46:31;98046.63;;;15.70;52.92
60170;BME280;46042;49.444;6.862;2023-03-22T14:48:59;98050.44;;;15.68;51.03
60170;BME280;46042;49.444;6.862;2023-03-22T14:51:29;98043.16;;;15.88;54.13